createdAt,value
2019-02-08T00:00:27.684Z,1.58
2019-02-08T00:02:34.569Z,1.58
2019-02-08T00:04:41.652Z,1.56
2019-02-08T00:06:49.347Z,1.55
2019-02-08T00:08:56.283Z,1.60
2019-02-08T00:11:03.088Z,1.57
2019-02-08T00:13:11.044Z,1.57
2019-02-08T00:15:26.363Z,1.60
2019-02-08T00:17:33.871Z,1.61
2019-02-08T00:19:41.364Z,1.62
2019-02-08T00:21:48.684Z,1.64
2019-02-08T00:23:55.847Z,1.66
2019-02-08T00:26:02.764Z,1.63
2019-02-08T00:28:10.244Z,1.64
2019-02-08T00:30:26.531Z,1.62
2019-02-08T00:32:33.526Z,1.62
2019-02-08T00:34:40.284Z,1.62
2019-02-08T00:36:47.604Z,1.56
2019-02-08T00:38:54.413Z,1.56
2019-02-08T00:41:01.763Z,1.55
2019-02-08T00:43:09.444Z,1.57
2019-02-08T00:45:23.137Z,1.51
2019-02-08T00:47:30.244Z,1.51
2019-02-08T00:49:37.203Z,1.48
2019-02-08T00:51:44.085Z,1.49
2019-02-08T00:53:50.883Z,1.50
2019-02-08T00:55:57.926Z,1.48
2019-02-08T00:58:06.244Z,1.47
2019-02-08T01:00:17.203Z,1.47
2019-02-08T01:02:24.204Z,1.49
2019-02-08T01:04:31.285Z,1.50
2019-02-08T01:06:38.204Z,1.48
2019-02-08T01:08:45.204Z,1.49
2019-02-08T01:10:53.645Z,1.48
2019-02-08T01:13:01.087Z,1.48
2019-02-08T01:15:12.564Z,1.46
2019-02-08T01:17:19.604Z,1.46
2019-02-08T01:19:26.284Z,1.46
2019-02-08T01:21:32.914Z,1.46
2019-02-08T01:23:41.353Z,1.44
2019-02-08T01:25:48.687Z,1.40
2019-02-08T01:27:55.966Z,1.41
2019-02-08T01:30:05.519Z,1.36
2019-02-08T01:32:12.845Z,1.35
2019-02-08T01:34:19.606Z,1.35
2019-02-08T01:36:26.443Z,1.33
2019-02-08T01:38:35.604Z,1.35
2019-02-08T01:40:43.964Z,1.33
2019-02-08T01:42:51.003Z,1.34
2019-02-08T01:44:58.204Z,1.33
2019-02-08T01:47:05.363Z,1.34
2019-02-08T01:49:13.684Z,1.32
2019-02-08T01:51:20.444Z,1.32
2019-02-08T01:53:27.844Z,1.33
2019-02-08T01:55:35.445Z,1.33
2019-02-08T01:57:42.645Z,1.34
2019-02-08T01:59:50.084Z,1.31
2019-02-08T02:01:56.644Z,1.31
2019-02-08T02:04:03.503Z,1.30
2019-02-08T02:06:10.806Z,1.32
2019-02-08T02:08:17.995Z,1.33
2019-02-08T02:10:46.645Z,1.27
2019-02-08T02:12:54.044Z,1.26
2019-02-08T02:15:01.204Z,1.24
2019-02-08T02:17:09.885Z,1.21
2019-02-08T02:19:16.603Z,1.20
2019-02-08T02:21:24.863Z,1.16
2019-02-08T02:23:31.683Z,1.14
2019-02-08T02:25:38.382Z,1.12
2019-02-08T02:27:46.261Z,1.11
2019-02-08T02:29:55.302Z,1.09
2019-02-08T02:32:02.160Z,1.06
2019-02-08T02:34:10.702Z,1.05
2019-02-08T02:36:18.060Z,1.02
2019-02-08T02:38:24.801Z,1.00
2019-02-08T02:40:31.801Z,0.99
2019-02-08T02:42:38.362Z,0.99
2019-02-08T02:44:46.284Z,0.99
2019-02-08T02:46:54.763Z,0.97
2019-02-08T02:49:01.714Z,0.97
2019-02-08T02:51:08.502Z,0.99
2019-02-08T02:53:16.061Z,0.97
2019-02-08T02:55:32.422Z,0.95
2019-02-08T02:57:41.344Z,0.98
2019-02-08T02:59:47.986Z,0.95
2019-02-08T03:01:54.880Z,0.95
2019-02-08T03:04:02.140Z,0.89
2019-02-08T03:06:09.125Z,0.88
2019-02-08T03:08:17.539Z,0.85
2019-02-08T03:10:25.942Z,0.83
2019-02-08T03:12:32.657Z,0.81
2019-02-08T03:14:39.602Z,0.77
2019-02-08T03:16:46.420Z,0.74
2019-02-08T03:18:53.280Z,0.70
2019-02-08T03:21:00.622Z,0.67
2019-02-08T03:23:09.279Z,0.65
2019-02-08T03:25:21.379Z,0.62
2019-02-08T03:27:28.160Z,0.59
2019-02-08T03:29:35.700Z,0.58
2019-02-08T03:31:43.057Z,0.59
2019-02-08T03:33:50.358Z,0.59
2019-02-08T03:35:58.879Z,0.60
2019-02-08T03:38:06.065Z,0.58
2019-02-08T03:40:17.105Z,0.63
2019-02-08T03:42:24.146Z,0.61
2019-02-08T03:44:31.001Z,0.63
2019-02-08T03:46:37.467Z,0.63
2019-02-08T03:48:44.122Z,0.65
2019-02-08T03:50:50.800Z,0.63
2019-02-08T03:52:58.177Z,0.62
2019-02-08T03:55:06.842Z,0.59
2019-02-08T03:57:15.284Z,0.63
2019-02-08T03:59:22.282Z,0.64
2019-02-08T04:01:30.126Z,0.62
2019-02-08T04:03:37.250Z,0.63
2019-02-08T04:05:44.132Z,0.61
2019-02-08T04:07:52.837Z,0.57
2019-02-08T04:09:59.997Z,0.56
2019-02-08T04:12:06.978Z,0.55
2019-02-08T04:14:16.635Z,0.53
2019-02-08T04:16:23.318Z,0.52
2019-02-08T04:18:30.056Z,0.52
2019-02-08T04:20:38.605Z,0.52
2019-02-08T04:22:45.192Z,0.54
2019-02-08T04:24:51.825Z,0.55
2019-02-08T04:26:58.810Z,0.54
2019-02-08T04:29:05.573Z,0.56
2019-02-08T04:31:13.658Z,0.56
2019-02-08T04:33:20.213Z,0.56
2019-02-08T04:35:27.255Z,0.58
2019-02-08T04:37:33.960Z,0.59
2019-02-08T04:39:41.039Z,0.57
2019-02-08T04:41:49.023Z,0.56
2019-02-08T04:43:58.453Z,0.55
2019-02-08T04:46:06.202Z,0.55
2019-02-08T04:48:12.823Z,0.54
2019-02-08T04:50:28.794Z,0.54
2019-02-08T04:52:37.139Z,0.52
2019-02-08T04:54:43.853Z,0.50
2019-02-08T04:56:53.132Z,0.47
2019-02-08T04:58:59.581Z,0.47
2019-02-08T05:01:06.400Z,0.46
2019-02-08T05:03:13.342Z,0.44
2019-02-08T05:05:20.490Z,0.41
2019-02-08T05:07:27.993Z,0.40
2019-02-08T05:09:34.620Z,0.39
2019-02-08T05:11:41.461Z,0.36
2019-02-08T05:13:49.412Z,0.35
2019-02-08T05:15:55.861Z,0.39
2019-02-08T05:18:02.710Z,0.40
2019-02-08T05:20:18.046Z,0.37
2019-02-08T05:22:25.163Z,0.36
2019-02-08T05:24:32.180Z,0.34
2019-02-08T05:26:38.910Z,0.31
2019-02-08T05:28:46.756Z,0.29
2019-02-08T05:30:53.207Z,0.28
2019-02-08T05:33:20.775Z,0.26
2019-02-08T05:35:28.115Z,0.27
2019-02-08T05:37:34.887Z,0.22
2019-02-08T05:39:41.487Z,0.19
2019-02-08T05:41:48.348Z,0.16
2019-02-08T05:43:55.220Z,0.13
2019-02-08T05:46:01.752Z,0.11
2019-02-08T05:48:08.300Z,0.06
2019-02-08T05:50:25.935Z,0.02
2019-02-08T05:52:32.488Z,0.00
2019-02-08T05:54:39.244Z,-0.03
2019-02-08T05:56:46.168Z,-0.05
2019-02-08T05:58:54.178Z,-0.09
2019-02-08T06:01:00.898Z,-0.12
2019-02-08T06:03:08.176Z,-0.14
2019-02-08T06:05:17.730Z,-0.17
2019-02-08T06:07:25.356Z,-0.22
2019-02-08T06:09:32.128Z,-0.24
2019-02-08T06:11:38.908Z,-0.25
2019-02-08T06:13:45.827Z,-0.27
2019-02-08T06:15:52.439Z,-0.28
2019-02-08T06:17:59.071Z,-0.30
2019-02-08T06:20:10.184Z,0.04
2019-02-08T06:22:17.351Z,0.21
2019-02-08T06:24:25.666Z,0.53
2019-02-08T06:26:32.486Z,0.67
2019-02-08T06:28:39.030Z,0.53
2019-02-08T06:30:46.056Z,0.42
2019-02-08T06:32:55.510Z,0.28
2019-02-08T06:35:02.326Z,0.19
2019-02-08T06:37:09.116Z,0.14
2019-02-08T06:39:17.319Z,0.08
2019-02-08T06:41:23.916Z,0.08
2019-02-08T06:43:30.781Z,0.07
2019-02-08T06:45:38.027Z,0.05
2019-02-08T06:47:46.756Z,0.04
2019-02-08T06:49:54.597Z,0.03
2019-02-08T06:52:01.026Z,0.05
2019-02-08T06:54:07.966Z,0.09
2019-02-08T06:56:16.926Z,0.44
2019-02-08T06:58:26.407Z,1.17
2019-02-08T07:00:52.393Z,1.28
2019-02-08T07:03:20.695Z,1.50
2019-02-08T07:05:47.776Z,1.66
2019-02-08T07:08:09.834Z,1.75
2019-02-08T07:10:21.316Z,1.49
2019-02-08T07:12:32.206Z,1.54
2019-02-08T07:14:43.815Z,1.54
2019-02-08T07:17:01.496Z,1.83
2019-02-08T07:19:16.045Z,1.80
2019-02-08T07:21:31.685Z,1.83
2019-02-08T07:23:40.352Z,1.99
2019-02-08T07:25:48.768Z,1.74
2019-02-08T07:27:59.942Z,1.73
2019-02-08T07:30:12.461Z,1.85
2019-02-08T07:32:30.872Z,1.91
2019-02-08T07:34:39.355Z,1.59
2019-02-08T07:36:50.786Z,1.46
2019-02-08T07:39:03.778Z,1.33
2019-02-08T07:41:31.051Z,1.19
2019-02-08T07:43:40.375Z,1.13
2019-02-08T07:45:52.726Z,1.11
2019-02-08T07:48:10.425Z,1.13
2019-02-08T07:50:21.401Z,1.16
2019-02-08T07:52:47.241Z,1.24
2019-02-08T07:55:11.493Z,1.31
2019-02-08T07:57:23.956Z,1.37
2019-02-08T07:59:33.312Z,1.46
2019-02-08T08:01:46.354Z,1.50
2019-02-08T08:04:01.430Z,1.60
2019-02-08T08:06:09.615Z,1.64
2019-02-08T08:08:35.326Z,1.72
2019-02-08T08:10:46.915Z,1.80
2019-02-08T08:13:07.103Z,1.83
2019-02-08T08:15:18.995Z,1.90
2019-02-08T08:17:29.465Z,1.88
2019-02-08T08:19:52.862Z,1.93
2019-02-08T08:22:01.532Z,1.99
2019-02-08T08:24:12.915Z,2.10
2019-02-08T08:26:24.984Z,2.14
2019-02-08T08:28:42.963Z,2.19
2019-02-08T08:30:53.330Z,2.24
2019-02-08T08:33:04.905Z,2.27
2019-02-08T08:35:42.597Z,2.32
2019-02-08T08:38:13.096Z,2.39
2019-02-08T08:40:47.949Z,2.42
2019-02-08T08:43:36.719Z,2.45
2019-02-08T08:46:10.105Z,2.43
2019-02-08T08:48:48.892Z,2.46
2019-02-08T08:51:20.083Z,2.44
2019-02-08T08:54:01.036Z,2.51
2019-02-08T08:56:27.989Z,2.55
2019-02-08T08:59:05.515Z,2.60
2019-02-08T09:01:47.982Z,2.68
2019-02-08T09:04:07.861Z,2.71
2019-02-08T09:06:52.125Z,2.77
2019-02-08T09:09:18.559Z,2.81
2019-02-08T09:12:02.575Z,2.86
2019-02-08T09:14:39.205Z,2.89
2019-02-08T09:17:07.792Z,2.97
2019-02-08T09:19:31.960Z,2.99
2019-02-08T09:22:22.053Z,3.09
2019-02-08T09:24:53.761Z,3.10
2019-02-08T09:27:37.182Z,3.20
2019-02-08T09:30:16.773Z,3.25
2019-02-08T09:32:49.836Z,3.29
2019-02-08T09:35:25.266Z,3.37
2019-02-08T09:37:46.444Z,3.39
2019-02-08T09:39:57.385Z,3.45
2019-02-08T09:42:22.955Z,3.52
2019-02-08T09:45:27.345Z,3.55
2019-02-08T09:48:10.115Z,3.52
2019-02-08T09:50:41.704Z,3.58
2019-02-08T09:53:30.311Z,3.58
2019-02-08T09:55:44.154Z,3.61
2019-02-08T09:58:09.496Z,3.72
2019-02-08T10:00:35.098Z,3.78
2019-02-08T10:03:12.979Z,3.89
2019-02-08T10:05:43.406Z,3.94
2019-02-08T10:08:14.878Z,4.04
2019-02-08T10:10:54.612Z,4.09
2019-02-08T10:13:25.238Z,4.14
2019-02-08T10:16:11.039Z,4.17
2019-02-08T10:18:54.048Z,4.20
2019-02-08T10:21:26.305Z,4.26
2019-02-08T10:24:19.537Z,4.30
2019-02-08T10:26:57.478Z,4.35
2019-02-08T10:29:40.112Z,4.43
2019-02-08T10:32:27.222Z,4.41
2019-02-08T10:35:19.030Z,4.47
2019-02-08T10:37:57.024Z,4.50
2019-02-08T10:40:36.674Z,4.53
2019-02-08T10:43:03.476Z,4.60
2019-02-08T10:45:35.129Z,4.69
2019-02-08T10:48:10.175Z,4.76
2019-02-08T10:50:50.078Z,4.81
2019-02-08T10:53:53.150Z,4.86
2019-02-08T10:56:25.204Z,4.91
2019-02-08T10:59:16.795Z,4.89
2019-02-08T11:01:52.392Z,4.92
2019-02-08T11:04:34.695Z,4.97
2019-02-08T11:07:08.363Z,5.00
2019-02-08T11:09:53.876Z,5.00
2019-02-08T11:12:24.705Z,5.02
2019-02-08T11:15:03.535Z,5.04
2019-02-08T11:17:49.232Z,5.16
2019-02-08T11:19:59.107Z,5.23
2019-02-08T11:22:05.915Z,5.24
2019-02-08T11:24:13.094Z,5.20
2019-02-08T11:26:24.168Z,5.23
2019-02-08T11:28:30.055Z,5.29
2019-02-08T11:30:36.859Z,5.28
2019-02-08T11:32:45.122Z,5.27
2019-02-08T11:34:52.005Z,5.38
2019-02-08T11:36:58.882Z,5.42
2019-02-08T11:39:11.790Z,5.39
2019-02-08T11:41:18.653Z,5.37
2019-02-08T11:43:27.252Z,5.34
2019-02-08T11:45:33.756Z,5.36
2019-02-08T11:47:41.163Z,5.40
2019-02-08T11:49:47.872Z,5.39
2019-02-08T11:51:54.623Z,5.35
2019-02-08T11:54:04.030Z,5.36
2019-02-08T11:56:11.073Z,5.40
2019-02-08T11:58:17.705Z,5.42
2019-02-08T12:00:31.183Z,5.44
2019-02-08T12:02:40.510Z,5.44
2019-02-08T12:04:46.622Z,5.63
2019-02-08T12:06:53.350Z,5.68
2019-02-08T12:09:01.444Z,5.86
2019-02-08T12:11:09.432Z,5.97
2019-02-08T12:13:16.172Z,5.93
2019-02-08T12:15:24.505Z,5.84
2019-02-08T12:17:31.414Z,5.97
2019-02-08T12:19:38.379Z,5.75
2019-02-08T12:21:44.984Z,5.58
2019-02-08T12:23:51.623Z,5.56
2019-02-08T12:25:58.884Z,5.53
2019-02-08T12:28:06.606Z,5.45
2019-02-08T12:30:40.202Z,5.49
2019-02-08T12:32:49.937Z,5.52
2019-02-08T12:34:58.026Z,5.33
2019-02-08T12:37:04.741Z,5.28
2019-02-08T12:39:12.580Z,5.26
2019-02-08T12:41:18.963Z,5.22
2019-02-08T12:43:27.110Z,5.24
2019-02-08T12:45:33.965Z,5.22
2019-02-08T12:47:40.503Z,5.21
2019-02-08T12:49:48.531Z,5.20
2019-02-08T12:51:55.181Z,5.23
2019-02-08T12:54:03.283Z,5.27
2019-02-08T12:56:12.228Z,5.23
2019-02-08T12:58:18.680Z,5.24
2019-02-08T13:00:30.576Z,5.12
2019-02-08T13:02:37.335Z,5.07
2019-02-08T13:04:44.207Z,5.10
2019-02-08T13:06:51.119Z,5.12
2019-02-08T13:08:57.877Z,5.06
2019-02-08T13:11:06.084Z,5.05
2019-02-08T13:13:12.839Z,5.03
2019-02-08T13:15:19.983Z,4.98
2019-02-08T13:17:29.708Z,4.98
2019-02-08T13:19:36.327Z,4.99
2019-02-08T13:21:43.043Z,4.97
2019-02-08T13:23:49.682Z,5.01
2019-02-08T13:25:57.897Z,5.01
2019-02-08T13:28:04.388Z,5.02
2019-02-08T13:30:32.548Z,5.00
2019-02-08T13:32:39.187Z,5.00
2019-02-08T13:34:45.948Z,5.01
2019-02-08T13:36:52.847Z,5.02
2019-02-08T13:39:00.007Z,5.02
2019-02-08T13:41:06.835Z,5.04
2019-02-08T13:43:13.495Z,5.02
2019-02-08T13:45:20.931Z,5.05
2019-02-08T13:47:27.488Z,5.04
2019-02-08T13:49:36.774Z,5.06
2019-02-08T13:51:43.650Z,5.07
2019-02-08T13:53:51.796Z,5.06
2019-02-08T13:55:58.968Z,5.05
2019-02-08T13:58:06.207Z,5.09
2019-02-08T14:00:17.066Z,5.08
2019-02-08T14:02:23.643Z,5.06
2019-02-08T14:04:31.754Z,5.03
2019-02-08T14:06:38.702Z,5.01
2019-02-08T14:08:45.185Z,4.99
2019-02-08T14:10:53.150Z,4.98
2019-02-08T14:12:59.787Z,4.97
2019-02-08T14:15:11.639Z,4.98
2019-02-08T14:17:19.783Z,4.97
2019-02-08T14:19:26.572Z,4.95
2019-02-08T14:21:33.398Z,4.94
2019-02-08T14:23:41.225Z,4.92
2019-02-08T14:25:48.892Z,4.87
2019-02-08T14:27:55.514Z,4.82
2019-02-08T14:30:03.792Z,4.76
2019-02-08T14:32:11.166Z,4.70
2019-02-08T14:34:17.945Z,4.64
2019-02-08T14:36:24.494Z,4.61
2019-02-08T14:38:31.134Z,4.57
2019-02-08T14:40:38.968Z,4.56
2019-02-08T14:42:46.159Z,4.53
2019-02-08T14:44:53.005Z,4.48
2019-02-08T14:46:59.765Z,4.46
2019-02-08T14:49:06.775Z,4.43
2019-02-08T14:51:13.645Z,4.38
2019-02-08T14:53:20.642Z,4.33
2019-02-08T14:55:27.576Z,4.30
2019-02-08T14:57:34.333Z,4.27
2019-02-08T14:59:41.259Z,4.23
2019-02-08T15:01:49.176Z,4.20
2019-02-08T15:03:55.996Z,4.15
2019-02-08T15:06:02.696Z,4.09
2019-02-08T15:08:09.485Z,4.05
2019-02-08T15:10:20.331Z,4.01
2019-02-08T15:12:27.286Z,3.93
2019-02-08T15:14:34.872Z,3.88
2019-02-08T15:16:41.583Z,3.80
2019-02-08T15:18:48.296Z,3.73
2019-02-08T15:20:54.872Z,3.66
2019-02-08T15:23:01.789Z,3.60
2019-02-08T15:25:10.935Z,3.55
2019-02-08T15:27:24.174Z,3.49
2019-02-08T15:29:26.855Z,3.43
2019-02-08T15:31:33.634Z,3.35
2019-02-08T15:33:40.714Z,3.34
2019-02-08T15:35:50.154Z,3.28
2019-02-08T15:37:57.423Z,3.21
2019-02-08T15:40:05.805Z,3.14
2019-02-08T15:42:14.371Z,3.08
2019-02-08T15:44:21.923Z,2.99
2019-02-08T15:46:29.561Z,2.97
2019-02-08T15:48:36.915Z,2.90
2019-02-08T15:50:44.090Z,2.85
2019-02-08T15:52:52.761Z,2.80
2019-02-08T15:54:59.850Z,2.75
2019-02-08T15:57:08.150Z,2.69
2019-02-08T15:59:15.174Z,2.65
2019-02-08T16:01:22.082Z,2.59
2019-02-08T16:03:30.513Z,2.53
2019-02-08T16:05:38.161Z,2.49
2019-02-08T16:07:45.401Z,2.45
2019-02-08T16:09:52.373Z,2.46
2019-02-08T16:11:59.915Z,2.42
2019-02-08T16:14:09.354Z,2.43
2019-02-08T16:16:17.041Z,2.41
2019-02-08T16:18:24.009Z,2.36
2019-02-08T16:20:31.193Z,2.32
2019-02-08T16:22:38.424Z,2.28
2019-02-08T16:24:45.373Z,2.23
2019-02-08T16:26:52.611Z,2.17
2019-02-08T16:28:59.716Z,2.14
2019-02-08T16:31:07.251Z,2.09
2019-02-08T16:33:14.295Z,2.06
2019-02-08T16:35:24.114Z,2.05
2019-02-08T16:37:31.538Z,2.02
2019-02-08T16:39:38.624Z,1.99
2019-02-08T16:41:46.384Z,1.99
2019-02-08T16:43:53.805Z,1.97
2019-02-08T16:46:01.316Z,1.92
2019-02-08T16:48:17.802Z,1.90
2019-02-08T16:50:31.074Z,1.88
2019-02-08T16:52:38.057Z,1.85
2019-02-08T16:54:44.975Z,1.81
2019-02-08T16:56:52.361Z,1.78
2019-02-08T16:59:00.546Z,1.78
2019-02-08T17:01:08.463Z,1.75
2019-02-08T17:03:16.153Z,1.72
2019-02-08T17:05:27.141Z,1.73
2019-02-08T17:07:34.525Z,1.70
2019-02-08T17:09:41.695Z,1.65
2019-02-08T17:11:49.184Z,1.63
2019-02-08T17:13:57.404Z,1.65
2019-02-08T17:16:04.704Z,1.62
2019-02-08T17:18:12.411Z,1.65
2019-02-08T17:20:24.204Z,1.65
2019-02-08T17:22:31.321Z,1.67
2019-02-08T17:24:38.445Z,1.67
2019-02-08T17:26:45.606Z,1.67
2019-02-08T17:28:53.154Z,1.68
2019-02-08T17:31:00.605Z,1.68
2019-02-08T17:33:09.085Z,1.68
2019-02-08T17:35:22.353Z,1.66
2019-02-08T17:37:29.395Z,1.62
2019-02-08T17:39:36.842Z,1.61
2019-02-08T17:41:44.363Z,1.54
2019-02-08T17:43:53.163Z,1.50
2019-02-08T17:46:00.293Z,1.47
2019-02-08T17:48:11.570Z,1.42
2019-02-08T17:50:27.512Z,1.39
2019-02-08T17:52:35.371Z,1.37
2019-02-08T17:54:43.001Z,1.36
2019-02-08T17:56:50.374Z,1.35
2019-02-08T17:58:58.054Z,1.34
2019-02-08T18:01:05.473Z,1.33
2019-02-08T18:03:12.683Z,1.33
2019-02-08T18:05:20.332Z,1.31
2019-02-08T18:07:27.774Z,1.29
2019-02-08T18:09:35.314Z,1.29
2019-02-08T18:11:42.453Z,1.29
2019-02-08T18:13:49.722Z,1.26
2019-02-08T18:15:57.373Z,1.23
2019-02-08T18:18:09.236Z,1.21
2019-02-08T18:20:26.854Z,1.14
2019-02-08T18:22:34.006Z,1.10
2019-02-08T18:24:41.406Z,1.04
2019-02-08T18:26:48.925Z,1.01
2019-02-08T18:28:55.937Z,1.00
2019-02-08T18:31:03.134Z,0.98
2019-02-08T18:33:10.686Z,0.99
2019-02-08T18:35:18.522Z,0.97
2019-02-08T18:37:25.775Z,0.96
2019-02-08T18:39:33.071Z,0.94
2019-02-08T18:41:40.539Z,0.92
2019-02-08T18:43:48.541Z,0.94
2019-02-08T18:45:56.703Z,0.94
2019-02-08T18:48:04.175Z,0.89
2019-02-08T18:50:32.834Z,0.86
2019-02-08T18:52:39.944Z,0.84
2019-02-08T18:54:47.524Z,0.82
2019-02-08T18:56:54.954Z,0.81
2019-02-08T18:59:02.915Z,0.79
2019-02-08T19:01:10.232Z,0.79
2019-02-08T19:03:17.301Z,0.79
2019-02-08T19:05:25.754Z,0.78
2019-02-08T19:07:42.201Z,0.78
2019-02-08T19:09:49.364Z,0.76
2019-02-08T19:11:56.915Z,0.74
2019-02-08T19:14:03.952Z,0.71
2019-02-08T19:16:11.114Z,0.73
2019-02-08T19:18:18.750Z,0.72
2019-02-08T19:20:32.054Z,0.72
2019-02-08T19:22:40.743Z,0.70
2019-02-08T19:24:47.972Z,0.70
2019-02-08T19:26:55.531Z,0.72
2019-02-08T19:29:03.131Z,0.74
2019-02-08T19:31:10.502Z,0.74
2019-02-08T19:33:17.714Z,0.77
2019-02-08T19:35:25.111Z,0.74
2019-02-08T19:37:32.671Z,0.74
2019-02-08T19:39:44.501Z,0.74
2019-02-08T19:41:51.473Z,0.73
2019-02-08T19:43:59.031Z,0.71
2019-02-08T19:46:06.352Z,0.70
2019-02-08T19:48:14.111Z,0.70
2019-02-08T19:50:28.051Z,0.73
2019-02-08T19:52:34.985Z,0.74
2019-02-08T19:54:43.509Z,0.73
2019-02-08T19:56:50.914Z,0.71
2019-02-08T19:58:59.104Z,0.70
2019-02-08T20:01:08.444Z,0.65
2019-02-08T20:03:16.552Z,0.64
2019-02-08T20:05:28.340Z,0.61
2019-02-08T20:07:35.772Z,0.65
2019-02-08T20:09:43.577Z,0.64
2019-02-08T20:11:51.342Z,0.64
2019-02-08T20:13:58.654Z,0.64
2019-02-08T20:16:06.814Z,0.64
2019-02-08T20:18:14.691Z,0.64
2019-02-08T20:20:21.914Z,0.62
2019-02-08T20:22:29.324Z,0.59
2019-02-08T20:24:36.444Z,0.63
2019-02-08T20:26:43.706Z,0.64
2019-02-08T20:28:50.857Z,0.64
2019-02-08T20:30:57.931Z,0.64
2019-02-08T20:33:05.897Z,0.64
2019-02-08T20:35:16.724Z,0.63
2019-02-08T20:37:26.149Z,0.65
2019-02-08T20:39:34.306Z,0.62
2019-02-08T20:41:47.000Z,0.61
2019-02-08T20:43:54.539Z,0.62
2019-02-08T20:46:02.624Z,0.59
2019-02-08T20:48:22.372Z,0.58
2019-02-08T20:50:30.214Z,0.59
2019-02-08T20:52:37.862Z,0.57
2019-02-08T20:54:46.493Z,0.56
2019-02-08T20:56:59.033Z,0.55
2019-02-08T20:59:04.071Z,0.53
2019-02-08T21:01:14.723Z,0.54
2019-02-08T21:03:23.674Z,0.53
2019-02-08T21:05:32.225Z,0.51
2019-02-08T21:07:39.623Z,0.50
2019-02-08T21:09:46.514Z,0.51
2019-02-08T21:11:53.707Z,0.51
2019-02-08T21:14:00.721Z,0.51
2019-02-08T21:16:08.600Z,0.50
2019-02-08T21:18:15.788Z,0.50
2019-02-08T21:20:25.021Z,0.48
2019-02-08T21:22:32.180Z,0.48
2019-02-08T21:24:41.811Z,0.49
2019-02-08T21:26:49.580Z,0.48
2019-02-08T21:28:57.913Z,0.45
2019-02-08T21:31:11.562Z,0.42
2019-02-08T21:33:18.963Z,0.41
2019-02-08T21:35:25.924Z,0.39
2019-02-08T21:37:33.153Z,0.39
2019-02-08T21:39:40.115Z,0.38
2019-02-08T21:41:48.974Z,0.36
2019-02-08T21:43:56.485Z,0.35
2019-02-08T21:46:04.130Z,0.37
2019-02-08T21:48:12.763Z,0.36
2019-02-08T21:50:22.766Z,0.39
2019-02-08T21:52:30.194Z,0.38
2019-02-08T21:54:38.065Z,0.40
2019-02-08T21:56:45.318Z,0.40
2019-02-08T21:58:52.256Z,0.40
2019-02-08T22:00:59.620Z,0.44
2019-02-08T22:03:08.339Z,0.44
2019-02-08T22:05:15.529Z,0.45
2019-02-08T22:07:22.772Z,0.45
2019-02-08T22:09:29.744Z,0.44
2019-02-08T22:11:37.155Z,0.42
2019-02-08T22:13:44.074Z,0.43
2019-02-08T22:15:51.243Z,0.43
2019-02-08T22:17:58.224Z,0.44
2019-02-08T22:20:08.569Z,0.47
2019-02-08T22:22:15.234Z,0.48
2019-02-08T22:24:22.534Z,0.51
2019-02-08T22:26:30.905Z,0.48
2019-02-08T22:28:37.555Z,0.49
2019-02-08T22:30:44.394Z,0.46
2019-02-08T22:32:52.916Z,0.44
2019-02-08T22:34:59.684Z,0.43
2019-02-08T22:37:07.081Z,0.43
2019-02-08T22:39:15.513Z,0.41
2019-02-08T22:41:24.172Z,0.40
2019-02-08T22:43:34.052Z,0.39
2019-02-08T22:45:43.642Z,0.36
2019-02-08T22:47:50.434Z,0.34
2019-02-08T22:49:58.583Z,0.34
2019-02-08T22:52:05.714Z,0.34
2019-02-08T22:54:12.914Z,0.32
2019-02-08T22:56:19.607Z,0.30
2019-02-08T22:58:26.564Z,0.29
2019-02-08T23:00:44.833Z,0.30
2019-02-08T23:02:53.570Z,0.31
2019-02-08T23:05:00.087Z,0.30
2019-02-08T23:07:08.072Z,0.29
2019-02-08T23:09:21.835Z,0.28
2019-02-08T23:11:29.644Z,0.27
2019-02-08T23:13:36.552Z,0.26
2019-02-08T23:15:43.296Z,0.26
2019-02-08T23:17:50.084Z,0.25
2019-02-08T23:19:56.504Z,0.27
2019-02-08T23:22:03.303Z,0.27
2019-02-08T23:24:10.384Z,0.26
2019-02-08T23:26:17.154Z,0.24
2019-02-08T23:28:23.915Z,0.22
2019-02-08T23:30:30.774Z,0.23
2019-02-08T23:32:37.573Z,0.23
2019-02-08T23:34:45.262Z,0.22
2019-02-08T23:36:52.354Z,0.21
2019-02-08T23:38:59.433Z,0.23
2019-02-08T23:41:07.764Z,0.22
2019-02-08T23:43:14.741Z,0.27
2019-02-08T23:45:23.873Z,0.29
2019-02-08T23:47:31.124Z,0.32
2019-02-08T23:49:37.719Z,0.35
2019-02-08T23:51:44.647Z,0.39
2019-02-08T23:53:51.368Z,0.43
2019-02-08T23:55:59.130Z,0.48
2019-02-08T23:58:08.244Z,0.51
